createdAt,value
2019-03-10T00:01:40.848Z,5.50
2019-03-10T00:04:26.239Z,6.07
2019-03-10T00:10:28.555Z,6.70
2019-03-10T00:13:35.786Z,5.67
2019-03-10T00:16:11.478Z,6.37
2019-03-10T00:18:55.969Z,5.70
2019-03-10T00:21:40.261Z,6.60
2019-03-10T00:24:27.059Z,5.70
2019-03-10T00:27:13.817Z,6.80
2019-03-10T00:29:58.527Z,6.20
2019-03-10T00:32:59.927Z,5.70
2019-03-10T00:38:50.792Z,6.03
2019-03-10T00:41:39.065Z,6.10
2019-03-10T00:44:22.971Z,5.83
2019-03-10T00:47:07.953Z,6.10
2019-03-10T00:49:52.583Z,6.67
2019-03-10T00:52:53.047Z,6.17
2019-03-10T00:55:37.596Z,6.40
2019-03-10T01:01:30.973Z,6.13
2019-03-10T01:04:20.607Z,5.83
2019-03-10T01:07:10.278Z,6.00
2019-03-10T01:09:54.806Z,5.57
2019-03-10T01:12:38.696Z,6.37
2019-03-10T01:18:15.729Z,6.37
2019-03-10T01:21:00.080Z,6.20
2019-03-10T01:23:43.182Z,6.20
2019-03-10T01:26:32.296Z,7.00
2019-03-10T01:29:17.978Z,7.50
2019-03-10T01:32:02.733Z,6.97
2019-03-10T01:34:47.371Z,6.77
2019-03-10T01:40:18.527Z,6.47
2019-03-10T01:45:56.728Z,7.33
2019-03-10T01:48:41.957Z,7.03
2019-03-10T01:51:26.203Z,7.20
2019-03-10T01:54:10.514Z,7.07
2019-03-10T01:56:57.080Z,6.03
2019-03-10T01:59:41.105Z,7.00
2019-03-10T02:02:26.102Z,7.00
2019-03-10T02:05:09.216Z,6.27
2019-03-10T02:07:52.934Z,7.43
2019-03-10T02:10:37.064Z,6.30
2019-03-10T02:13:20.146Z,5.77
2019-03-10T02:16:05.388Z,6.13
2019-03-10T02:18:49.388Z,6.13
2019-03-10T02:21:33.685Z,7.70
2019-03-10T02:24:23.750Z,6.80
2019-03-10T02:27:01.978Z,7.03
2019-03-10T02:29:45.479Z,6.00
2019-03-10T02:32:30.716Z,5.97
2019-03-10T02:35:15.155Z,6.17
2019-03-10T02:37:58.581Z,6.53
2019-03-10T02:40:31.407Z,6.90
2019-03-10T02:43:22.196Z,6.53
2019-03-10T02:46:05.921Z,7.00
2019-03-10T02:48:55.511Z,6.20
2019-03-10T02:51:41.386Z,6.37
2019-03-10T02:54:33.104Z,6.50
2019-03-10T02:57:16.641Z,6.10
2019-03-10T03:00:03.429Z,7.03
2019-03-10T03:02:50.838Z,6.60
2019-03-10T03:05:36.153Z,7.83
2019-03-10T03:08:23.822Z,6.60
2019-03-10T03:11:09.175Z,7.00
2019-03-10T03:13:52.495Z,6.53
2019-03-10T03:16:35.442Z,6.20
2019-03-10T03:22:03.606Z,6.33
2019-03-10T03:24:47.754Z,7.07
2019-03-10T03:27:36.628Z,6.90
2019-03-10T03:30:23.033Z,6.40
2019-03-10T03:33:06.707Z,5.80
2019-03-10T03:36:16.746Z,6.90
2019-03-10T03:41:37.919Z,5.77
2019-03-10T03:47:52.984Z,6.00
2019-03-10T03:50:42.058Z,5.40
2019-03-10T03:56:28.107Z,5.23
2019-03-10T03:59:13.158Z,4.77
2019-03-10T04:05:08.225Z,4.90
2019-03-10T04:07:55.905Z,5.30
2019-03-10T04:16:22.830Z,6.00
2019-03-10T04:19:09.273Z,5.90
2019-03-10T04:21:57.618Z,5.07
2019-03-10T04:24:41.313Z,4.97
2019-03-10T04:27:29.613Z,5.40
2019-03-10T04:30:13.858Z,5.17
2019-03-10T04:32:57.479Z,5.07
2019-03-10T04:35:46.464Z,5.70
2019-03-10T04:38:30.476Z,6.23
2019-03-10T04:41:14.882Z,7.27
2019-03-10T04:49:45.437Z,6.03
2019-03-10T04:52:29.302Z,7.93
2019-03-10T04:55:30.822Z,5.97
2019-03-10T04:58:19.283Z,6.93
2019-03-10T05:01:02.123Z,6.37
2019-03-10T05:03:47.632Z,7.17
2019-03-10T05:06:31.683Z,6.30
2019-03-10T05:09:15.374Z,6.57
2019-03-10T05:11:58.947Z,7.33
2019-03-10T05:14:44.477Z,6.80
2019-03-10T05:20:07.889Z,6.50
2019-03-10T05:22:56.936Z,7.13
2019-03-10T05:25:45.917Z,7.27
2019-03-10T05:28:31.734Z,6.60
2019-03-10T05:31:15.552Z,5.87
2019-03-10T05:34:05.020Z,4.30
2019-03-10T05:36:48.423Z,5.00
2019-03-10T05:39:32.965Z,4.77
2019-03-10T05:42:22.099Z,4.83
2019-03-10T05:45:06.093Z,5.20
2019-03-10T05:50:37.124Z,5.07
2019-03-10T05:53:22.803Z,4.80
2019-03-10T05:56:07.793Z,5.00
2019-03-10T05:58:51.818Z,5.00
2019-03-10T06:01:35.592Z,5.60
2019-03-10T06:04:22.493Z,5.10
2019-03-10T06:07:05.885Z,5.33
2019-03-10T06:09:49.714Z,5.47
2019-03-10T06:12:33.988Z,4.80
2019-03-10T06:15:18.103Z,5.27
2019-03-10T06:18:13.622Z,4.60
2019-03-10T06:21:14.507Z,5.73
2019-03-10T06:24:03.828Z,4.73
2019-03-10T06:26:50.896Z,6.27
2019-03-10T06:29:35.463Z,5.47
2019-03-10T06:32:18.980Z,5.63
2019-03-10T06:35:02.125Z,5.67
2019-03-10T06:37:48.272Z,5.57
2019-03-10T06:40:33.819Z,4.30
2019-03-10T06:43:17.806Z,5.23
2019-03-10T06:46:03.734Z,5.77
2019-03-10T06:48:52.660Z,4.90
2019-03-10T06:51:39.387Z,5.17
2019-03-10T06:54:27.215Z,5.30
2019-03-10T06:57:16.274Z,4.50
2019-03-10T07:00:09.753Z,5.00
2019-03-10T07:02:58.163Z,4.87
2019-03-10T07:05:43.294Z,3.70
2019-03-10T07:08:28.502Z,3.93
2019-03-10T07:11:12.792Z,4.23
2019-03-10T07:13:56.960Z,3.77
2019-03-10T07:16:41.363Z,3.33
2019-03-10T07:19:29.423Z,3.00
2019-03-10T07:22:17.518Z,3.30
2019-03-10T07:25:01.694Z,3.67
2019-03-10T07:31:02.591Z,2.83
2019-03-10T07:36:43.921Z,2.73
2019-03-10T07:42:52.688Z,2.87
2019-03-10T07:45:41.952Z,2.80
2019-03-10T07:48:37.948Z,3.00
2019-03-10T07:51:29.063Z,2.50
2019-03-10T07:54:40.769Z,2.50
2019-03-10T08:03:51.649Z,3.10
2019-03-10T08:06:43.497Z,3.07
2019-03-10T08:09:37.736Z,3.47
2019-03-10T08:12:30.001Z,3.50
2019-03-10T08:18:45.035Z,2.60
2019-03-10T08:21:56.673Z,2.30
2019-03-10T08:24:41.410Z,2.97
2019-03-10T08:27:37.687Z,2.40
2019-03-10T08:49:09.708Z,3.40
2019-03-10T08:52:18.359Z,4.23
2019-03-10T08:55:28.336Z,3.87
2019-03-10T08:58:27.404Z,3.50
2019-03-10T09:09:52.740Z,4.60
2019-03-10T09:12:53.133Z,4.13
2019-03-10T09:15:52.149Z,4.83
2019-03-10T09:19:02.735Z,4.57
2019-03-10T09:25:12.075Z,6.23
2019-03-10T09:28:08.323Z,6.43
2019-03-10T09:34:21.718Z,7.10
2019-03-10T09:37:32.531Z,6.17
2019-03-10T09:40:15.603Z,5.20
2019-03-10T09:43:13.206Z,4.73
2019-03-10T09:45:56.633Z,4.40
2019-03-10T09:49:02.504Z,4.30
2019-03-10T09:51:51.355Z,4.50
2019-03-10T09:57:47.178Z,5.27
2019-03-10T10:06:35.300Z,4.97
2019-03-10T10:09:23.808Z,3.80
2019-03-10T10:15:40.419Z,2.40
2019-03-10T10:21:36.557Z,3.17
2019-03-10T10:27:29.490Z,2.07
2019-03-10T10:36:42.774Z,2.70
2019-03-10T10:43:13.736Z,2.00
2019-03-10T10:46:15.817Z,2.53
2019-03-10T10:49:02.162Z,3.17
2019-03-10T10:54:59.732Z,3.00
2019-03-10T11:07:46.879Z,3.00
2019-03-10T11:10:33.217Z,3.50
2019-03-10T11:13:21.999Z,3.10
2019-03-10T11:19:16.943Z,3.77
2019-03-10T11:22:08.604Z,3.73
2019-03-10T11:25:10.220Z,3.00
2019-03-10T11:28:00.290Z,3.50
2019-03-10T11:33:49.392Z,3.00
2019-03-10T11:36:38.211Z,2.77
2019-03-10T11:39:43.263Z,2.40
2019-03-10T11:42:31.840Z,3.03
2019-03-10T11:52:16.650Z,3.03
2019-03-10T11:55:06.760Z,2.77
2019-03-10T11:58:12.598Z,3.30
2019-03-10T12:06:35.169Z,4.13
2019-03-10T12:09:25.759Z,4.20
2019-03-10T12:12:38.202Z,3.30
2019-03-10T12:15:31.223Z,4.00
2019-03-10T12:18:15.168Z,3.60
2019-03-10T12:24:10.446Z,3.23
2019-03-10T12:26:42.954Z,3.37
2019-03-10T12:35:34.702Z,2.83
2019-03-10T12:41:14.041Z,3.60
2019-03-10T12:53:14.303Z,2.70
2019-03-10T12:55:59.387Z,2.20
2019-03-10T12:58:43.957Z,2.67
2019-03-10T13:04:32.676Z,2.73
2019-03-10T13:07:22.714Z,3.63
2019-03-10T13:16:43.333Z,4.17
2019-03-10T13:22:30.143Z,3.70
2019-03-10T13:25:15.795Z,4.00
2019-03-10T13:30:58.351Z,4.57
2019-03-10T13:33:44.225Z,3.57
2019-03-10T13:45:45.584Z,7.07
2019-03-10T13:48:29.860Z,3.27
2019-03-10T13:54:22.383Z,1.90
2019-03-10T13:57:06.783Z,2.17
2019-03-10T14:02:51.229Z,1.60
2019-03-10T14:11:36.832Z,1.50
2019-03-10T14:17:19.325Z,1.50
2019-03-10T14:25:56.108Z,2.00
2019-03-10T14:28:42.267Z,1.83
2019-03-10T14:34:15.281Z,2.87
2019-03-10T14:36:59.409Z,2.40
2019-03-10T14:39:42.774Z,1.60
2019-03-10T14:42:29.014Z,1.70
2019-03-10T14:45:13.073Z,1.73
2019-03-10T14:48:00.754Z,1.53
2019-03-10T14:50:46.138Z,1.40
2019-03-10T14:53:32.177Z,1.23
2019-03-10T14:56:21.753Z,1.40
2019-03-10T15:02:07.818Z,1.07
2019-03-10T15:04:55.902Z,1.60
2019-03-10T15:07:40.485Z,1.37
2019-03-10T15:10:25.209Z,2.00
2019-03-10T15:13:11.264Z,1.90
2019-03-10T15:16:02.416Z,1.40
2019-03-10T15:18:48.904Z,1.93
2019-03-10T15:24:17.877Z,1.60
2019-03-10T15:27:04.447Z,1.90
2019-03-10T15:29:51.279Z,2.53
2019-03-10T15:35:25.939Z,2.70
2019-03-10T15:38:14.535Z,2.40
2019-03-10T15:44:05.392Z,2.37
2019-03-10T15:46:49.191Z,2.57
2019-03-10T15:49:23.804Z,1.73
2019-03-10T15:52:16.367Z,1.80
2019-03-10T15:57:51.078Z,3.70
2019-03-10T16:00:34.855Z,2.60
2019-03-10T16:03:18.219Z,2.03
2019-03-10T16:06:02.966Z,3.33
2019-03-10T16:08:47.349Z,4.50
2019-03-10T16:11:31.686Z,3.37
2019-03-10T16:14:16.748Z,3.57
2019-03-10T16:17:03.267Z,3.37
2019-03-10T16:19:46.661Z,2.43
2019-03-10T16:22:31.288Z,4.07
2019-03-10T16:25:16.749Z,0.77
2019-03-10T16:28:03.418Z,0.90
2019-03-10T16:36:30.567Z,0.50
2019-03-10T16:39:16.766Z,0.60
2019-03-10T16:42:08.448Z,0.50
2019-03-10T16:47:45.395Z,0.40
2019-03-10T16:50:30.214Z,0.47
2019-03-10T16:53:13.742Z,0.57
2019-03-10T16:56:02.659Z,0.50
2019-03-10T16:58:43.791Z,0.43
2019-03-10T17:01:32.467Z,0.40
2019-03-10T17:04:16.904Z,0.47
2019-03-10T17:06:58.609Z,0.60
2019-03-10T17:09:48.037Z,0.70
2019-03-10T17:12:36.301Z,0.60
2019-03-10T17:18:04.980Z,0.73
2019-03-10T17:20:49.886Z,1.00
2019-03-10T17:29:23.191Z,2.00
2019-03-10T17:32:16.347Z,1.70
2019-03-10T17:35:02.678Z,2.10
2019-03-10T17:37:48.607Z,1.90
2019-03-10T17:52:14.339Z,3.17
2019-03-10T17:55:11.647Z,2.87
2019-03-10T17:57:57.009Z,4.40
2019-03-10T18:07:02.469Z,7.87
2019-03-10T18:16:15.348Z,8.03
2019-03-10T18:19:01.815Z,3.60
2019-03-10T18:21:48.799Z,3.07
2019-03-10T18:27:44.336Z,3.83
2019-03-10T18:31:00.754Z,4.93
2019-03-10T18:33:49.954Z,2.10
2019-03-10T18:39:43.019Z,2.37
2019-03-10T18:46:02.604Z,1.87
2019-03-10T18:48:48.798Z,1.60
2019-03-10T18:51:42.571Z,1.30
2019-03-10T18:54:27.485Z,1.43
2019-03-10T18:57:15.614Z,2.10
2019-03-10T19:02:52.523Z,1.30
2019-03-10T19:05:42.314Z,1.17
2019-03-10T19:08:31.603Z,1.27
2019-03-10T19:11:18.222Z,1.33
2019-03-10T19:13:52.806Z,1.00
2019-03-10T19:16:38.041Z,1.00
2019-03-10T19:22:05.352Z,1.50
2019-03-10T19:24:40.685Z,1.50
2019-03-10T19:27:30.513Z,1.30
2019-03-10T19:30:18.341Z,1.23
2019-03-10T19:32:54.076Z,1.10
2019-03-10T19:35:41.103Z,1.33
2019-03-10T19:47:51.346Z,6.20
2019-03-10T19:50:40.645Z,6.27
2019-03-10T19:53:30.729Z,5.57
2019-03-10T19:56:19.503Z,2.10
2019-03-10T19:59:10.793Z,2.20
2019-03-10T20:01:44.181Z,3.77
2019-03-10T20:04:27.768Z,5.73
2019-03-10T20:07:13.799Z,2.03
2019-03-10T20:09:47.149Z,1.37
2019-03-10T20:15:31.041Z,1.50
2019-03-10T20:27:23.839Z,2.13
2019-03-10T20:42:11.990Z,6.00
2019-03-10T20:54:43.458Z,3.10
2019-03-10T20:57:45.354Z,3.50
2019-03-10T21:03:20.814Z,4.10
2019-03-10T21:09:06.822Z,3.37
2019-03-10T21:18:20.189Z,3.13
2019-03-10T21:24:39.169Z,2.47
2019-03-10T21:27:26.363Z,2.63
2019-03-10T21:30:12.614Z,2.30
2019-03-10T21:32:46.416Z,2.40
2019-03-10T21:41:32.964Z,2.30
2019-03-10T21:48:04.014Z,2.30
2019-03-10T21:59:50.141Z,1.93
2019-03-10T22:02:44.017Z,2.17
2019-03-10T22:05:30.214Z,2.33
2019-03-10T22:08:16.956Z,2.37
2019-03-10T22:11:02.438Z,2.00
2019-03-10T22:13:49.899Z,2.30
2019-03-10T22:16:36.165Z,1.93
2019-03-10T22:19:23.227Z,2.33
2019-03-10T22:22:08.778Z,2.77
2019-03-10T22:24:54.089Z,2.60
2019-03-10T22:27:45.920Z,2.37
2019-03-10T22:30:52.591Z,2.50
2019-03-10T22:36:48.271Z,2.50
2019-03-10T22:39:33.555Z,3.60
2019-03-10T22:45:14.063Z,2.53
2019-03-10T22:47:58.313Z,2.73
2019-03-10T22:50:47.743Z,2.80
2019-03-10T22:53:33.827Z,2.77
2019-03-10T22:59:02.346Z,2.30
2019-03-10T23:01:48.380Z,2.63
2019-03-10T23:04:34.679Z,2.60
2019-03-10T23:07:20.907Z,2.90
2019-03-10T23:10:07.245Z,1.97
2019-03-10T23:13:09.445Z,2.97
2019-03-10T23:18:49.780Z,2.40
2019-03-10T23:21:37.998Z,2.50
2019-03-10T23:27:07.703Z,3.23
2019-03-10T23:29:56.771Z,2.37
2019-03-10T23:35:44.736Z,3.97
2019-03-10T23:38:28.864Z,4.00
2019-03-10T23:41:13.273Z,3.53
2019-03-10T23:46:47.264Z,4.60
2019-03-10T23:49:36.157Z,5.30
2019-03-10T23:52:23.531Z,4.20
2019-03-10T23:58:03.708Z,2.63
